KVCT/VCT METAR and TAF weather

Enter ICAO airport designator
Station Type Date Time Source
KVCT METAR 2022/06/28 14:51 UTC NOAA

KVCT 281451Z 040010KT 10SMSM CLR 28/23 A3010


Station Type Date Time Source
KVCT Decoded METAR 2022/06/28 14:51 UTC NOAA

VICTORIA REGIONAL AIRPORT, TX, United States (KVCT) 28-52N 96-56W 31M
Jun 28, 2022 - 10:51 AM EDT / 2022.06.28 1451 UTC
Wind: from the NE (040 degrees) at 12 MPH (10 KT):0
Sky conditions: clear
Temperature: 82 F (28 C)
Dew Point: 73 F (23 C)
Relative Humidity: 74%
Pressure (altimeter): 30.1 in. Hg (1019 hPa)
ob: KVCT 281451Z 040010KT 10SMSM CLR 28/23 A3010
cycle: 15

Station Type Date Time Source
KVCT TAF 2022/06/28 12:24 UTC NOAA

TAF KVCT 281122Z 2812/2912 36005KT P6SM SCT020 BKN250
FM281500 02007KT P6SM BKN025 BKN150
FM281800 02010KT P6SM VCTS BKN035CB OVC100
FM290000 12006KT P6SM VCTS SCT040CB BKN250
FM290300 VRB02KT P6SM SCT035 BKN250
FM291000 36004KT P6SM BKN025

Example: see airport list